sensor_id;sensor_type;location;lat;lon;timestamp;P1;durP1;ratioP1;P2;durP2;ratioP2
75437;SDS011;64015;49.392;15.582;2023-01-25T00:02:20;28.83;;;12.48;;
75437;SDS011;64015;49.392;15.582;2023-01-25T00:04:45;29.40;;;11.63;;
75437;SDS011;64015;49.392;15.582;2023-01-25T00:07:13;29.75;;;11.85;;
75437;SDS011;64015;49.392;15.582;2023-01-25T00:09:39;29.77;;;11.10;;
75437;SDS011;64015;49.392;15.582;2023-01-25T00:12:05;30.15;;;10.65;;
75437;SDS011;64015;49.392;15.582;2023-01-25T00:14:30;28.85;;;11.80;;
75437;SDS011;64015;49.392;15.582;2023-01-25T00:16:56;26.80;;;11.10;;
75437;SDS011;64015;49.392;15.582;2023-01-25T00:19:21;27.77;;;9.85;;
75437;SDS011;64015;49.392;15.582;2023-01-25T00:21:48;31.67;;;11.27;;
75437;SDS011;64015;49.392;15.582;2023-01-25T00:24:14;31.83;;;12.07;;
75437;SDS011;64015;49.392;15.582;2023-01-25T00:26:40;34.03;;;11.30;;
75437;SDS011;64015;49.392;15.582;2023-01-25T00:29:13;34.70;;;11.27;;
75437;SDS011;64015;49.392;15.582;2023-01-25T00:31:44;26.48;;;9.80;;
75437;SDS011;64015;49.392;15.582;2023-01-25T00:34:57;29.83;;;11.48;;
75437;SDS011;64015;49.392;15.582;2023-01-25T00:39:39;29.23;;;10.63;;
75437;SDS011;64015;49.392;15.582;2023-01-25T00:42:09;25.77;;;10.48;;
75437;SDS011;64015;49.392;15.582;2023-01-25T00:44:35;31.48;;;11.73;;
75437;SDS011;64015;49.392;15.582;2023-01-25T00:47:01;29.50;;;10.88;;
75437;SDS011;64015;49.392;15.582;2023-01-25T00:49:27;31.15;;;11.45;;
75437;SDS011;64015;49.392;15.582;2023-01-25T00:51:56;31.48;;;10.90;;
75437;SDS011;64015;49.392;15.582;2023-01-25T00:54:22;34.50;;;11.30;;
75437;SDS011;64015;49.392;15.582;2023-01-25T00:56:49;29.20;;;11.82;;
75437;SDS011;64015;49.392;15.582;2023-01-25T00:59:18;29.10;;;10.85;;
75437;SDS011;64015;49.392;15.582;2023-01-25T01:01:44;31.02;;;11.30;;
75437;SDS011;64015;49.392;15.582;2023-01-25T01:04:10;28.83;;;9.98;;
75437;SDS011;64015;49.392;15.582;2023-01-25T01:06:40;28.02;;;10.43;;
75437;SDS011;64015;49.392;15.582;2023-01-25T01:09:06;27.63;;;11.23;;
75437;SDS011;64015;49.392;15.582;2023-01-25T01:11:36;34.28;;;11.10;;
75437;SDS011;64015;49.392;15.582;2023-01-25T01:14:01;30.10;;;11.30;;
75437;SDS011;64015;49.392;15.582;2023-01-25T01:16:28;38.22;;;12.82;;
75437;SDS011;64015;49.392;15.582;2023-01-25T01:18:53;35.60;;;12.73;;
75437;SDS011;64015;49.392;15.582;2023-01-25T01:21:19;28.20;;;12.02;;
75437;SDS011;64015;49.392;15.582;2023-01-25T01:23:45;32.10;;;12.18;;
75437;SDS011;64015;49.392;15.582;2023-01-25T01:26:12;30.02;;;10.93;;
75437;SDS011;64015;49.392;15.582;2023-01-25T01:28:40;29.02;;;10.80;;
75437;SDS011;64015;49.392;15.582;2023-01-25T01:31:11;31.65;;;11.68;;
75437;SDS011;64015;49.392;15.582;2023-01-25T01:33:47;28.17;;;10.80;;
75437;SDS011;64015;49.392;15.582;2023-01-25T01:39:10;29.50;;;10.48;;
75437;SDS011;64015;49.392;15.582;2023-01-25T01:41:36;31.60;;;10.63;;
75437;SDS011;64015;49.392;15.582;2023-01-25T01:44:02;29.40;;;11.48;;
75437;SDS011;64015;49.392;15.582;2023-01-25T01:46:30;30.05;;;10.13;;
75437;SDS011;64015;49.392;15.582;2023-01-25T01:49:23;21.25;;;8.88;;
75437;SDS011;64015;49.392;15.582;2023-01-25T01:51:57;22.60;;;8.40;;
75437;SDS011;64015;49.392;15.582;2023-01-25T01:54:31;20.98;;;8.30;;
75437;SDS011;64015;49.392;15.582;2023-01-25T01:57:02;19.05;;;7.65;;
75437;SDS011;64015;49.392;15.582;2023-01-25T01:59:40;22.75;;;8.48;;
75437;SDS011;64015;49.392;15.582;2023-01-25T02:02:07;20.75;;;8.20;;
75437;SDS011;64015;49.392;15.582;2023-01-25T02:04:33;20.88;;;8.82;;
75437;SDS011;64015;49.392;15.582;2023-01-25T02:07:02;24.25;;;8.32;;
75437;SDS011;64015;49.392;15.582;2023-01-25T02:09:35;23.10;;;9.43;;
75437;SDS011;64015;49.392;15.582;2023-01-25T02:12:02;21.33;;;8.52;;
75437;SDS011;64015;49.392;15.582;2023-01-25T02:14:30;23.90;;;9.10;;
75437;SDS011;64015;49.392;15.582;2023-01-25T02:16:56;21.08;;;8.40;;
75437;SDS011;64015;49.392;15.582;2023-01-25T02:19:41;23.65;;;8.85;;
75437;SDS011;64015;49.392;15.582;2023-01-25T02:22:19;20.90;;;8.27;;
75437;SDS011;64015;49.392;15.582;2023-01-25T02:27:37;22.50;;;8.32;;
75437;SDS011;64015;49.392;15.582;2023-01-25T02:30:07;22.17;;;8.10;;
75437;SDS011;64015;49.392;15.582;2023-01-25T02:32:33;22.80;;;9.13;;
75437;SDS011;64015;49.392;15.582;2023-01-25T02:34:59;21.83;;;9.45;;
75437;SDS011;64015;49.392;15.582;2023-01-25T02:37:25;26.20;;;10.20;;
75437;SDS011;64015;49.392;15.582;2023-01-25T02:39:50;29.23;;;10.60;;
75437;SDS011;64015;49.392;15.582;2023-01-25T02:42:17;26.65;;;10.20;;
75437;SDS011;64015;49.392;15.582;2023-01-25T02:44:42;26.95;;;9.73;;
75437;SDS011;64015;49.392;15.582;2023-01-25T02:47:08;25.88;;;10.20;;
75437;SDS011;64015;49.392;15.582;2023-01-25T02:49:35;26.98;;;10.05;;
75437;SDS011;64015;49.392;15.582;2023-01-25T02:52:02;24.83;;;9.45;;
75437;SDS011;64015;49.392;15.582;2023-01-25T02:54:29;26.30;;;10.10;;
75437;SDS011;64015;49.392;15.582;2023-01-25T02:56:55;25.55;;;11.07;;
75437;SDS011;64015;49.392;15.582;2023-01-25T02:59:20;29.42;;;10.15;;
75437;SDS011;64015;49.392;15.582;2023-01-25T03:01:46;25.92;;;10.82;;
75437;SDS011;64015;49.392;15.582;2023-01-25T03:04:12;25.25;;;9.00;;
75437;SDS011;64015;49.392;15.582;2023-01-25T03:06:38;25.63;;;8.82;;
75437;SDS011;64015;49.392;15.582;2023-01-25T03:09:06;27.65;;;9.93;;
75437;SDS011;64015;49.392;15.582;2023-01-25T03:11:34;24.90;;;10.27;;
75437;SDS011;64015;49.392;15.582;2023-01-25T03:14:00;26.67;;;10.02;;
75437;SDS011;64015;49.392;15.582;2023-01-25T03:16:26;30.83;;;10.68;;
75437;SDS011;64015;49.392;15.582;2023-01-25T03:18:52;27.58;;;9.82;;
75437;SDS011;64015;49.392;15.582;2023-01-25T03:23:46;24.35;;;8.63;;
75437;SDS011;64015;49.392;15.582;2023-01-25T03:26:14;25.15;;;9.75;;
75437;SDS011;64015;49.392;15.582;2023-01-25T03:28:41;24.10;;;9.68;;
75437;SDS011;64015;49.392;15.582;2023-01-25T03:31:09;23.75;;;9.77;;
75437;SDS011;64015;49.392;15.582;2023-01-25T03:33:37;21.70;;;8.50;;
75437;SDS011;64015;49.392;15.582;2023-01-25T03:36:04;20.88;;;8.30;;
75437;SDS011;64015;49.392;15.582;2023-01-25T03:38:30;22.25;;;8.65;;
75437;SDS011;64015;49.392;15.582;2023-01-25T03:40:57;22.70;;;8.50;;
75437;SDS011;64015;49.392;15.582;2023-01-25T03:43:22;24.42;;;9.32;;
75437;SDS011;64015;49.392;15.582;2023-01-25T03:45:52;25.23;;;8.70;;
75437;SDS011;64015;49.392;15.582;2023-01-25T03:48:20;18.60;;;8.05;;
75437;SDS011;64015;49.392;15.582;2023-01-25T03:50:50;21.58;;;8.73;;
75437;SDS011;64015;49.392;15.582;2023-01-25T03:53:17;25.67;;;9.82;;
75437;SDS011;64015;49.392;15.582;2023-01-25T03:56:05;19.35;;;7.32;;
75437;SDS011;64015;49.392;15.582;2023-01-25T03:58:36;24.65;;;8.73;;
75437;SDS011;64015;49.392;15.582;2023-01-25T04:01:03;21.67;;;7.70;;
75437;SDS011;64015;49.392;15.582;2023-01-25T04:03:31;23.80;;;7.95;;
75437;SDS011;64015;49.392;15.582;2023-01-25T04:05:57;21.88;;;8.32;;
75437;SDS011;64015;49.392;15.582;2023-01-25T04:08:23;15.80;;;7.10;;
75437;SDS011;64015;49.392;15.582;2023-01-25T04:10:50;21.27;;;9.00;;
75437;SDS011;64015;49.392;15.582;2023-01-25T04:13:17;21.50;;;7.93;;
75437;SDS011;64015;49.392;15.582;2023-01-25T04:15:43;19.38;;;7.72;;
75437;SDS011;64015;49.392;15.582;2023-01-25T04:18:08;16.70;;;7.20;;
75437;SDS011;64015;49.392;15.582;2023-01-25T04:20:34;18.50;;;7.60;;
75437;SDS011;64015;49.392;15.582;2023-01-25T04:23:00;18.58;;;7.38;;
75437;SDS011;64015;49.392;15.582;2023-01-25T04:25:26;19.90;;;7.78;;
75437;SDS011;64015;49.392;15.582;2023-01-25T04:27:51;18.80;;;7.30;;
75437;SDS011;64015;49.392;15.582;2023-01-25T04:30:17;17.52;;;6.90;;
75437;SDS011;64015;49.392;15.582;2023-01-25T04:32:43;17.85;;;6.80;;
75437;SDS011;64015;49.392;15.582;2023-01-25T04:35:09;20.60;;;7.60;;
75437;SDS011;64015;49.392;15.582;2023-01-25T04:37:34;20.05;;;8.00;;
75437;SDS011;64015;49.392;15.582;2023-01-25T04:40:00;15.20;;;6.22;;
75437;SDS011;64015;49.392;15.582;2023-01-25T04:42:25;13.82;;;6.05;;
75437;SDS011;64015;49.392;15.582;2023-01-25T04:44:51;14.65;;;6.00;;
75437;SDS011;64015;49.392;15.582;2023-01-25T04:47:17;15.38;;;6.88;;
75437;SDS011;64015;49.392;15.582;2023-01-25T04:49:42;14.77;;;7.07;;
75437;SDS011;64015;49.392;15.582;2023-01-25T04:52:08;17.20;;;7.80;;
75437;SDS011;64015;49.392;15.582;2023-01-25T04:54:33;17.35;;;7.35;;
75437;SDS011;64015;49.392;15.582;2023-01-25T04:56:59;15.52;;;6.47;;
75437;SDS011;64015;49.392;15.582;2023-01-25T04:59:25;14.43;;;6.63;;
75437;SDS011;64015;49.392;15.582;2023-01-25T05:01:50;15.07;;;6.88;;
75437;SDS011;64015;49.392;15.582;2023-01-25T05:04:16;15.80;;;6.53;;
75437;SDS011;64015;49.392;15.582;2023-01-25T05:06:41;12.45;;;5.47;;
75437;SDS011;64015;49.392;15.582;2023-01-25T05:09:08;14.68;;;6.22;;
75437;SDS011;64015;49.392;15.582;2023-01-25T05:11:34;17.05;;;7.07;;
75437;SDS011;64015;49.392;15.582;2023-01-25T05:13:59;19.10;;;7.15;;
75437;SDS011;64015;49.392;15.582;2023-01-25T05:16:25;15.48;;;6.55;;
75437;SDS011;64015;49.392;15.582;2023-01-25T05:18:51;23.55;;;7.65;;
75437;SDS011;64015;49.392;15.582;2023-01-25T05:21:18;18.85;;;8.10;;
75437;SDS011;64015;49.392;15.582;2023-01-25T05:24:02;16.25;;;6.90;;
75437;SDS011;64015;49.392;15.582;2023-01-25T05:26:28;20.65;;;7.03;;
75437;SDS011;64015;49.392;15.582;2023-01-25T05:29:12;18.55;;;7.80;;
75437;SDS011;64015;49.392;15.582;2023-01-25T05:31:38;19.55;;;7.32;;
75437;SDS011;64015;49.392;15.582;2023-01-25T05:34:04;18.70;;;7.97;;
75437;SDS011;64015;49.392;15.582;2023-01-25T05:36:29;22.45;;;8.75;;
75437;SDS011;64015;49.392;15.582;2023-01-25T05:38:55;17.23;;;7.70;;
75437;SDS011;64015;49.392;15.582;2023-01-25T05:41:20;18.98;;;7.63;;
75437;SDS011;64015;49.392;15.582;2023-01-25T05:43:47;19.50;;;8.27;;
75437;SDS011;64015;49.392;15.582;2023-01-25T05:46:13;25.50;;;8.75;;
75437;SDS011;64015;49.392;15.582;2023-01-25T05:48:39;23.70;;;8.65;;
75437;SDS011;64015;49.392;15.582;2023-01-25T05:51:05;27.70;;;9.40;;
75437;SDS011;64015;49.392;15.582;2023-01-25T05:53:31;23.63;;;9.20;;
75437;SDS011;64015;49.392;15.582;2023-01-25T05:56:06;25.50;;;9.70;;
75437;SDS011;64015;49.392;15.582;2023-01-25T05:58:32;24.83;;;8.85;;
75437;SDS011;64015;49.392;15.582;2023-01-25T06:00:59;21.52;;;9.10;;
75437;SDS011;64015;49.392;15.582;2023-01-25T06:03:25;18.35;;;6.75;;
75437;SDS011;64015;49.392;15.582;2023-01-25T06:05:54;18.83;;;7.85;;
75437;SDS011;64015;49.392;15.582;2023-01-25T06:08:21;24.45;;;8.88;;
75437;SDS011;64015;49.392;15.582;2023-01-25T06:10:46;22.83;;;8.60;;
75437;SDS011;64015;49.392;15.582;2023-01-25T06:13:12;23.08;;;9.40;;
75437;SDS011;64015;49.392;15.582;2023-01-25T06:15:37;20.55;;;8.63;;
75437;SDS011;64015;49.392;15.582;2023-01-25T06:18:03;24.75;;;9.30;;
75437;SDS011;64015;49.392;15.582;2023-01-25T06:20:29;18.60;;;7.38;;
75437;SDS011;64015;49.392;15.582;2023-01-25T06:22:54;21.77;;;8.00;;
75437;SDS011;64015;49.392;15.582;2023-01-25T06:25:20;18.05;;;8.40;;
75437;SDS011;64015;49.392;15.582;2023-01-25T06:27:46;16.98;;;7.20;;
75437;SDS011;64015;49.392;15.582;2023-01-25T06:30:11;20.67;;;8.55;;
75437;SDS011;64015;49.392;15.582;2023-01-25T06:32:37;23.98;;;8.90;;
75437;SDS011;64015;49.392;15.582;2023-01-25T06:35:03;27.02;;;9.25;;
75437;SDS011;64015;49.392;15.582;2023-01-25T06:37:30;29.23;;;9.65;;
75437;SDS011;64015;49.392;15.582;2023-01-25T06:39:55;23.50;;;9.13;;
75437;SDS011;64015;49.392;15.582;2023-01-25T06:42:24;24.15;;;8.80;;
75437;SDS011;64015;49.392;15.582;2023-01-25T06:44:50;25.25;;;9.23;;
75437;SDS011;64015;49.392;15.582;2023-01-25T06:47:16;22.48;;;8.98;;
75437;SDS011;64015;49.392;15.582;2023-01-25T06:49:41;21.05;;;8.00;;
75437;SDS011;64015;49.392;15.582;2023-01-25T06:52:07;22.10;;;8.88;;
75437;SDS011;64015;49.392;15.582;2023-01-25T06:54:33;20.63;;;8.63;;
75437;SDS011;64015;49.392;15.582;2023-01-25T06:56:59;21.52;;;9.20;;
75437;SDS011;64015;49.392;15.582;2023-01-25T06:59:24;25.23;;;9.90;;
75437;SDS011;64015;49.392;15.582;2023-01-25T07:01:50;28.25;;;11.15;;
75437;SDS011;64015;49.392;15.582;2023-01-25T07:04:15;26.65;;;10.07;;
75437;SDS011;64015;49.392;15.582;2023-01-25T07:06:41;24.75;;;10.45;;
75437;SDS011;64015;49.392;15.582;2023-01-25T07:09:08;30.67;;;10.52;;
75437;SDS011;64015;49.392;15.582;2023-01-25T07:11:37;22.63;;;9.90;;
75437;SDS011;64015;49.392;15.582;2023-01-25T07:14:03;28.98;;;10.77;;
75437;SDS011;64015;49.392;15.582;2023-01-25T07:16:29;27.40;;;10.98;;
75437;SDS011;64015;49.392;15.582;2023-01-25T07:19:08;27.27;;;10.07;;
75437;SDS011;64015;49.392;15.582;2023-01-25T07:21:35;25.92;;;10.35;;
75437;SDS011;64015;49.392;15.582;2023-01-25T07:24:02;24.00;;;9.80;;
75437;SDS011;64015;49.392;15.582;2023-01-25T07:26:29;26.60;;;10.18;;
75437;SDS011;64015;49.392;15.582;2023-01-25T07:28:56;24.15;;;9.77;;
75437;SDS011;64015;49.392;15.582;2023-01-25T07:31:23;24.73;;;9.05;;
75437;SDS011;64015;49.392;15.582;2023-01-25T07:33:50;24.70;;;9.32;;
75437;SDS011;64015;49.392;15.582;2023-01-25T07:38:43;21.80;;;8.00;;
75437;SDS011;64015;49.392;15.582;2023-01-25T07:41:09;25.83;;;8.70;;
75437;SDS011;64015;49.392;15.582;2023-01-25T07:43:35;25.38;;;9.95;;
75437;SDS011;64015;49.392;15.582;2023-01-25T07:46:04;23.05;;;8.63;;
75437;SDS011;64015;49.392;15.582;2023-01-25T07:48:32;27.98;;;9.32;;
75437;SDS011;64015;49.392;15.582;2023-01-25T07:50:59;28.40;;;10.55;;
75437;SDS011;64015;49.392;15.582;2023-01-25T07:53:44;24.27;;;8.23;;
75437;SDS011;64015;49.392;15.582;2023-01-25T07:56:11;23.20;;;8.75;;
75437;SDS011;64015;49.392;15.582;2023-01-25T07:58:36;20.83;;;8.35;;
75437;SDS011;64015;49.392;15.582;2023-01-25T08:01:06;23.30;;;9.32;;
75437;SDS011;64015;49.392;15.582;2023-01-25T08:03:33;19.10;;;8.50;;
75437;SDS011;64015;49.392;15.582;2023-01-25T08:05:59;19.52;;;8.43;;
75437;SDS011;64015;49.392;15.582;2023-01-25T08:08:25;23.13;;;9.25;;
75437;SDS011;64015;49.392;15.582;2023-01-25T08:10:50;20.77;;;8.30;;
75437;SDS011;64015;49.392;15.582;2023-01-25T08:13:16;17.90;;;8.07;;
75437;SDS011;64015;49.392;15.582;2023-01-25T08:15:42;20.30;;;8.10;;
75437;SDS011;64015;49.392;15.582;2023-01-25T08:18:07;19.02;;;8.52;;
75437;SDS011;64015;49.392;15.582;2023-01-25T08:20:33;17.23;;;7.57;;
75437;SDS011;64015;49.392;15.582;2023-01-25T08:22:59;22.73;;;7.88;;
75437;SDS011;64015;49.392;15.582;2023-01-25T08:25:25;17.17;;;7.53;;
75437;SDS011;64015;49.392;15.582;2023-01-25T08:27:52;16.58;;;7.35;;
75437;SDS011;64015;49.392;15.582;2023-01-25T08:30:18;20.52;;;7.40;;
75437;SDS011;64015;49.392;15.582;2023-01-25T08:32:44;15.65;;;7.15;;
75437;SDS011;64015;49.392;15.582;2023-01-25T08:35:10;16.65;;;7.38;;
75437;SDS011;64015;49.392;15.582;2023-01-25T08:37:35;19.45;;;8.95;;
75437;SDS011;64015;49.392;15.582;2023-01-25T08:40:01;24.23;;;10.13;;
75437;SDS011;64015;49.392;15.582;2023-01-25T08:42:26;25.98;;;11.15;;
75437;SDS011;64015;49.392;15.582;2023-01-25T08:44:52;25.25;;;10.52;;
75437;SDS011;64015;49.392;15.582;2023-01-25T08:47:18;27.70;;;12.43;;
75437;SDS011;64015;49.392;15.582;2023-01-25T08:49:43;27.58;;;12.45;;
75437;SDS011;64015;49.392;15.582;2023-01-25T08:52:09;25.73;;;12.05;;
75437;SDS011;64015;49.392;15.582;2023-01-25T08:54:39;27.77;;;12.05;;
75437;SDS011;64015;49.392;15.582;2023-01-25T08:57:08;30.17;;;11.93;;
75437;SDS011;64015;49.392;15.582;2023-01-25T08:59:33;27.58;;;11.35;;
75437;SDS011;64015;49.392;15.582;2023-01-25T09:01:59;25.50;;;11.45;;
75437;SDS011;64015;49.392;15.582;2023-01-25T09:04:25;24.70;;;11.32;;
75437;SDS011;64015;49.392;15.582;2023-01-25T09:06:53;23.58;;;10.55;;
75437;SDS011;64015;49.392;15.582;2023-01-25T09:09:20;23.40;;;11.23;;
75437;SDS011;64015;49.392;15.582;2023-01-25T09:11:46;23.35;;;9.70;;
75437;SDS011;64015;49.392;15.582;2023-01-25T09:14:12;25.20;;;10.90;;
75437;SDS011;64015;49.392;15.582;2023-01-25T09:16:38;18.65;;;8.40;;
75437;SDS011;64015;49.392;15.582;2023-01-25T09:19:03;17.05;;;7.45;;
75437;SDS011;64015;49.392;15.582;2023-01-25T09:21:30;16.60;;;7.57;;
75437;SDS011;64015;49.392;15.582;2023-01-25T09:23:57;19.85;;;8.43;;
75437;SDS011;64015;49.392;15.582;2023-01-25T09:26:23;18.38;;;8.73;;
75437;SDS011;64015;49.392;15.582;2023-01-25T09:28:50;18.17;;;8.10;;
75437;SDS011;64015;49.392;15.582;2023-01-25T09:31:17;18.58;;;8.85;;
75437;SDS011;64015;49.392;15.582;2023-01-25T09:33:44;20.80;;;10.15;;
75437;SDS011;64015;49.392;15.582;2023-01-25T09:36:11;21.02;;;9.63;;
75437;SDS011;64015;49.392;15.582;2023-01-25T09:38:37;20.42;;;10.80;;
75437;SDS011;64015;49.392;15.582;2023-01-25T09:54:57;24.52;;;11.60;;
75437;SDS011;64015;49.392;15.582;2023-01-25T09:57:32;24.38;;;10.77;;
75437;SDS011;64015;49.392;15.582;2023-01-25T10:00:36;22.88;;;9.63;;
75437;SDS011;64015;49.392;15.582;2023-01-25T10:06:07;21.38;;;10.00;;
75437;SDS011;64015;49.392;15.582;2023-01-25T10:08:41;18.98;;;9.27;;
75437;SDS011;64015;49.392;15.582;2023-01-25T10:11:28;27.38;;;11.43;;
75437;SDS011;64015;49.392;15.582;2023-01-25T10:13:56;27.65;;;10.88;;
75437;SDS011;64015;49.392;15.582;2023-01-25T10:18:53;22.30;;;10.38;;
75437;SDS011;64015;49.392;15.582;2023-01-25T10:21:25;17.55;;;8.10;;
75437;SDS011;64015;49.392;15.582;2023-01-25T10:26:57;27.30;;;12.70;;
75437;SDS011;64015;49.392;15.582;2023-01-25T10:29:28;32.42;;;12.95;;
75437;SDS011;64015;49.392;15.582;2023-01-25T10:34:48;25.10;;;11.25;;
75437;SDS011;64015;49.392;15.582;2023-01-25T10:37:15;22.77;;;10.88;;
75437;SDS011;64015;49.392;15.582;2023-01-25T10:40:27;25.77;;;10.68;;
75437;SDS011;64015;49.392;15.582;2023-01-25T10:42:38;22.73;;;9.63;;
75437;SDS011;64015;49.392;15.582;2023-01-25T10:45:12;18.35;;;8.43;;
75437;SDS011;64015;49.392;15.582;2023-01-25T10:47:40;16.77;;;8.80;;
75437;SDS011;64015;49.392;15.582;2023-01-25T10:50:11;21.17;;;9.48;;
75437;SDS011;64015;49.392;15.582;2023-01-25T10:58:47;23.40;;;9.65;;
75437;SDS011;64015;49.392;15.582;2023-01-25T11:01:28;24.85;;;10.55;;
75437;SDS011;64015;49.392;15.582;2023-01-25T11:03:56;23.20;;;11.57;;
75437;SDS011;64015;49.392;15.582;2023-01-25T11:11:52;77.55;;;26.30;;
75437;SDS011;64015;49.392;15.582;2023-01-25T11:14:22;87.28;;;31.25;;
75437;SDS011;64015;49.392;15.582;2023-01-25T11:16:51;22.83;;;9.23;;
75437;SDS011;64015;49.392;15.582;2023-01-25T11:19:30;23.52;;;10.05;;
75437;SDS011;64015;49.392;15.582;2023-01-25T11:22:01;17.73;;;9.15;;
75437;SDS011;64015;49.392;15.582;2023-01-25T11:24:30;17.98;;;7.82;;
75437;SDS011;64015;49.392;15.582;2023-01-25T11:30:14;19.02;;;8.80;;
75437;SDS011;64015;49.392;15.582;2023-01-25T11:32:43;18.15;;;8.13;;
75437;SDS011;64015;49.392;15.582;2023-01-25T11:35:17;22.67;;;9.82;;
75437;SDS011;64015;49.392;15.582;2023-01-25T12:00:00;28.45;;;13.52;;
75437;SDS011;64015;49.392;15.582;2023-01-25T12:03:05;27.88;;;11.50;;
75437;SDS011;64015;49.392;15.582;2023-01-25T12:20:17;22.30;;;9.05;;
75437;SDS011;64015;49.392;15.582;2023-01-25T12:28:20;20.50;;;9.57;;
75437;SDS011;64015;49.392;15.582;2023-01-25T12:30:53;20.75;;;6.90;;
75437;SDS011;64015;49.392;15.582;2023-01-25T12:36:02;25.33;;;9.15;;
75437;SDS011;64015;49.392;15.582;2023-01-25T12:38:49;24.63;;;8.50;;
75437;SDS011;64015;49.392;15.582;2023-01-25T12:41:38;25.60;;;9.55;;
75437;SDS011;64015;49.392;15.582;2023-01-25T12:49:36;24.60;;;9.48;;
75437;SDS011;64015;49.392;15.582;2023-01-25T12:52:34;31.20;;;12.30;;
75437;SDS011;64015;49.392;15.582;2023-01-25T12:55:13;26.60;;;9.60;;
75437;SDS011;64015;49.392;15.582;2023-01-25T13:00:53;27.08;;;8.70;;
75437;SDS011;64015;49.392;15.582;2023-01-25T13:03:29;23.00;;;9.38;;
75437;SDS011;64015;49.392;15.582;2023-01-25T13:09:17;29.27;;;10.52;;
75437;SDS011;64015;49.392;15.582;2023-01-25T13:11:51;23.65;;;9.00;;
75437;SDS011;64015;49.392;15.582;2023-01-25T13:14:19;21.15;;;7.68;;
75437;SDS011;64015;49.392;15.582;2023-01-25T13:16:53;26.77;;;9.18;;
75437;SDS011;64015;49.392;15.582;2023-01-25T13:22:00;25.48;;;9.48;;
75437;SDS011;64015;49.392;15.582;2023-01-25T13:24:26;28.10;;;9.75;;
75437;SDS011;64015;49.392;15.582;2023-01-25T13:29:41;24.58;;;8.40;;
75437;SDS011;64015;49.392;15.582;2023-01-25T13:34:57;28.85;;;11.18;;
75437;SDS011;64015;49.392;15.582;2023-01-25T13:37:27;25.42;;;11.05;;
75437;SDS011;64015;49.392;15.582;2023-01-25T13:39:56;37.38;;;14.02;;
75437;SDS011;64015;49.392;15.582;2023-01-25T13:44:57;29.20;;;10.05;;
75437;SDS011;64015;49.392;15.582;2023-01-25T13:47:31;25.27;;;10.07;;
75437;SDS011;64015;49.392;15.582;2023-01-25T13:50:07;32.95;;;11.35;;
75437;SDS011;64015;49.392;15.582;2023-01-25T13:52:33;30.77;;;11.98;;
75437;SDS011;64015;49.392;15.582;2023-01-25T13:55:00;30.25;;;11.73;;
75437;SDS011;64015;49.392;15.582;2023-01-25T13:57:27;29.25;;;11.70;;
75437;SDS011;64015;49.392;15.582;2023-01-25T13:59:58;31.52;;;12.35;;
75437;SDS011;64015;49.392;15.582;2023-01-25T14:02:25;28.75;;;10.60;;
75437;SDS011;64015;49.392;15.582;2023-01-25T14:07:23;29.45;;;10.38;;
75437;SDS011;64015;49.392;15.582;2023-01-25T14:09:55;25.30;;;9.55;;
75437;SDS011;64015;49.392;15.582;2023-01-25T14:12:39;27.05;;;10.57;;
75437;SDS011;64015;49.392;15.582;2023-01-25T14:17:39;27.58;;;10.63;;
75437;SDS011;64015;49.392;15.582;2023-01-25T14:20:10;29.33;;;10.77;;
75437;SDS011;64015;49.392;15.582;2023-01-25T14:22:46;33.90;;;11.63;;
75437;SDS011;64015;49.392;15.582;2023-01-25T14:25:17;36.38;;;12.05;;
75437;SDS011;64015;49.392;15.582;2023-01-25T14:30:17;22.60;;;8.95;;
75437;SDS011;64015;49.392;15.582;2023-01-25T14:32:49;29.60;;;9.82;;
75437;SDS011;64015;49.392;15.582;2023-01-25T14:37:51;37.20;;;13.45;;
75437;SDS011;64015;49.392;15.582;2023-01-25T14:40:18;27.83;;;9.73;;
75437;SDS011;64015;49.392;15.582;2023-01-25T14:42:49;28.40;;;10.65;;
75437;SDS011;64015;49.392;15.582;2023-01-25T14:45:17;30.02;;;10.60;;
75437;SDS011;64015;49.392;15.582;2023-01-25T14:47:44;32.70;;;11.50;;
75437;SDS011;64015;49.392;15.582;2023-01-25T14:50:29;28.90;;;10.43;;
75437;SDS011;64015;49.392;15.582;2023-01-25T14:53:06;27.30;;;9.95;;
75437;SDS011;64015;49.392;15.582;2023-01-25T14:55:32;27.17;;;10.35;;
75437;SDS011;64015;49.392;15.582;2023-01-25T14:57:59;31.80;;;10.52;;
75437;SDS011;64015;49.392;15.582;2023-01-25T15:00:27;34.08;;;10.60;;
75437;SDS011;64015;49.392;15.582;2023-01-25T15:03:01;35.47;;;12.68;;
75437;SDS011;64015;49.392;15.582;2023-01-25T15:05:30;31.02;;;11.63;;
75437;SDS011;64015;49.392;15.582;2023-01-25T15:10:31;39.05;;;17.13;;
75437;SDS011;64015;49.392;15.582;2023-01-25T15:15:25;43.60;;;17.10;;
75437;SDS011;64015;49.392;15.582;2023-01-25T15:17:52;47.80;;;17.52;;
75437;SDS011;64015;49.392;15.582;2023-01-25T15:20:39;45.22;;;18.48;;
75437;SDS011;64015;49.392;15.582;2023-01-25T15:23:22;43.53;;;16.92;;
75437;SDS011;64015;49.392;15.582;2023-01-25T15:25:56;37.92;;;13.13;;
75437;SDS011;64015;49.392;15.582;2023-01-25T15:28:25;37.75;;;14.30;;
75437;SDS011;64015;49.392;15.582;2023-01-25T15:30:53;40.38;;;13.57;;
75437;SDS011;64015;49.392;15.582;2023-01-25T15:33:25;39.42;;;14.23;;
75437;SDS011;64015;49.392;15.582;2023-01-25T15:35:53;43.58;;;14.48;;
75437;SDS011;64015;49.392;15.582;2023-01-25T15:38:19;41.13;;;13.82;;
75437;SDS011;64015;49.392;15.582;2023-01-25T15:40:47;42.33;;;15.23;;
75437;SDS011;64015;49.392;15.582;2023-01-25T15:43:14;42.42;;;15.55;;
75437;SDS011;64015;49.392;15.582;2023-01-25T15:45:44;41.58;;;15.70;;
75437;SDS011;64015;49.392;15.582;2023-01-25T15:48:12;42.60;;;15.95;;
75437;SDS011;64015;49.392;15.582;2023-01-25T15:50:41;39.17;;;14.70;;
75437;SDS011;64015;49.392;15.582;2023-01-25T15:53:13;47.08;;;14.95;;
75437;SDS011;64015;49.392;15.582;2023-01-25T15:55:44;47.60;;;17.85;;
75437;SDS011;64015;49.392;15.582;2023-01-25T15:58:16;47.85;;;17.10;;
75437;SDS011;64015;49.392;15.582;2023-01-25T16:00:50;41.92;;;14.65;;
75437;SDS011;64015;49.392;15.582;2023-01-25T16:03:16;43.10;;;17.00;;
75437;SDS011;64015;49.392;15.582;2023-01-25T16:05:48;28.95;;;11.68;;
75437;SDS011;64015;49.392;15.582;2023-01-25T16:08:18;38.35;;;12.48;;
75437;SDS011;64015;49.392;15.582;2023-01-25T16:10:45;33.53;;;11.93;;
75437;SDS011;64015;49.392;15.582;2023-01-25T16:13:11;35.50;;;12.30;;
75437;SDS011;64015;49.392;15.582;2023-01-25T16:15:37;42.40;;;14.50;;
75437;SDS011;64015;49.392;15.582;2023-01-25T16:18:03;43.78;;;16.15;;
75437;SDS011;64015;49.392;15.582;2023-01-25T16:20:29;38.63;;;13.15;;
75437;SDS011;64015;49.392;15.582;2023-01-25T16:22:55;38.08;;;12.15;;
75437;SDS011;64015;49.392;15.582;2023-01-25T16:25:21;38.60;;;13.10;;
75437;SDS011;64015;49.392;15.582;2023-01-25T16:27:48;36.47;;;12.90;;
75437;SDS011;64015;49.392;15.582;2023-01-25T16:30:22;35.90;;;12.05;;
75437;SDS011;64015;49.392;15.582;2023-01-25T16:32:55;43.78;;;13.73;;
75437;SDS011;64015;49.392;15.582;2023-01-25T16:35:21;48.63;;;15.40;;
75437;SDS011;64015;49.392;15.582;2023-01-25T16:37:47;40.45;;;14.23;;
75437;SDS011;64015;49.392;15.582;2023-01-25T16:42:48;46.28;;;14.98;;
75437;SDS011;64015;49.392;15.582;2023-01-25T16:45:15;40.50;;;14.05;;